Terminal Aerodrome Forecast
Issued by NWS Billings, MT

Home | Current Version | Previous Version | Text Only | Print | Product List | Glossary On
Versions: 1 2 3 4 5 6 7 8 9 10 11 12 13 14 15 16 17 18 19 20 21 22 23 24 25 26 27 28 29 30 31
000
FTUS45 KBYZ 240538
TAFBIL
TAF
KBIL 240538Z 2406/2506 08006KT P6SM OVC060
     FM240700 01006KT P6SM OVC025
     FM241500 07008KT P6SM VCSH BKN015
     FM250000 03008KT P6SM BKN015=

USA.gov is the U.S. government's official web portal to all federal, state and local government web resources and services.